<?xml version="1.0" encoding="UTF-8" standalone="no" ?>
<gpx xmlns="http://www.topografix.com/GPX/1/1" xmlns:xsi="http://www.w3.org/2001/XMLSchema-instance" xsi:schemaLocation="http://www.topografix.com/GPX/1/1 http://www.topografix.com/GPX/1/1/gpx.xsd" version="1.1" creator="VisuGPX - https://www.visugpx.com">
  <metadata>
    <name>Conques-Livinhac le haut</name>
  </metadata>
  <trk>
    <name><![CDATA[Conques-en-Rouergue Randonnée]]></name>
    <extensions>
      <line xmlns="http://www.topografix.com/GPX/gpx_style/0/2">
        <color>0000FF</color>
        <width>4</width>
      </line>
    </extensions>
    <trkseg>
      <trkpt lat="44.59969" lon="2.39792">
        <ele>315</ele>
        <time>2022-06-19T05:18:02.000Z</time>
      </trkpt>
      <trkpt lat="44.59948" lon="2.39778">
        <ele>304.6</ele>
        <time>2022-06-19T05:18:17.000Z</time>
      </trkpt>
      <trkpt lat="44.59941" lon="2.39738">
        <ele>301.4</ele>
        <time>2022-06-19T05:18:56.000Z</time>
      </trkpt>
      <trkpt lat="44.59918" lon="2.39721">
        <ele>291.6</ele>
        <time>2022-06-19T05:19:27.000Z</time>
      </trkpt>
      <trkpt lat="44.59915" lon="2.39714">
        <ele>290.9</ele>
        <time>2022-06-19T05:20:24.000Z</time>
      </trkpt>
      <trkpt lat="44.59916" lon="2.3974">
        <ele>290.9</ele>
        <time>2022-06-19T05:21:15.000Z</time>
      </trkpt>
      <trkpt lat="44.59892" lon="2.39764">
        <ele>277.1</ele>
        <time>2022-06-19T05:21:45.000Z</time>
      </trkpt>
      <trkpt lat="44.59922" lon="2.39766">
        <ele>293</ele>
        <time>2022-06-19T05:22:27.000Z</time>
      </trkpt>
      <trkpt lat="44.59915" lon="2.39734">
        <ele>290.2</ele>
        <time>2022-06-19T05:22:47.000Z</time>
      </trkpt>
      <trkpt lat="44.59916" lon="2.39706">
        <ele>292.1</ele>
        <time>2022-06-19T05:24:08.000Z</time>
      </trkpt>
      <trkpt lat="44.59906" lon="2.39718">
        <ele>286.8</ele>
        <time>2022-06-19T05:25:28.000Z</time>
      </trkpt>
      <trkpt lat="44.59905" lon="2.39686">
        <ele>286.9</ele>
        <time>2022-06-19T05:25:53.000Z</time>
      </trkpt>
      <trkpt lat="44.59894" lon="2.39648">
        <ele>279.9</ele>
        <time>2022-06-19T05:26:31.000Z</time>
      </trkpt>
      <trkpt lat="44.59895" lon="2.39621">
        <ele>279.7</ele>
        <time>2022-06-19T05:27:07.000Z</time>
      </trkpt>
      <trkpt lat="44.59887" lon="2.39571">
        <ele>279.7</ele>
        <time>2022-06-19T05:27:46.000Z</time>
      </trkpt>
      <trkpt lat="44.59864" lon="2.39543">
        <ele>273.9</ele>
        <time>2022-06-19T05:28:27.000Z</time>
      </trkpt>
      <trkpt lat="44.59851" lon="2.39513">
        <ele>271.3</ele>
        <time>2022-06-19T05:28:59.000Z</time>
      </trkpt>
      <trkpt lat="44.5983" lon="2.39484">
        <ele>262.1</ele>
        <time>2022-06-19T05:29:32.000Z</time>
      </trkpt>
      <trkpt lat="44.59821" lon="2.39452">
        <ele>259.9</ele>
        <time>2022-06-19T05:30:02.000Z</time>
      </trkpt>
      <trkpt lat="44.59816" lon="2.39417">
        <ele>256.9</ele>
        <time>2022-06-19T05:30:34.000Z</time>
      </trkpt>
      <trkpt lat="44.59816" lon="2.39388">
        <ele>252.1</ele>
        <time>2022-06-19T05:31:28.000Z</time>
      </trkpt>
      <trkpt lat="44.59821" lon="2.39343">
        <ele>239.6</ele>
        <time>2022-06-19T05:32:09.000Z</time>
      </trkpt>
      <trkpt lat="44.5981" lon="2.39313">
        <ele>228.8</ele>
        <time>2022-06-19T05:32:43.000Z</time>
      </trkpt>
      <trkpt lat="44.59817" lon="2.39262">
        <ele>224</ele>
        <time>2022-06-19T05:33:35.000Z</time>
      </trkpt>
      <trkpt lat="44.59824" lon="2.39229">
        <ele>222.4</ele>
        <time>2022-06-19T05:34:50.000Z</time>
      </trkpt>
      <trkpt lat="44.59809" lon="2.39164">
        <ele>225.6</ele>
        <time>2022-06-19T05:36:18.000Z</time>
      </trkpt>
      <trkpt lat="44.59784" lon="2.39124">
        <ele>233</ele>
        <time>2022-06-19T05:37:03.000Z</time>
      </trkpt>
      <trkpt lat="44.59776" lon="2.39109">
        <ele>236.2</ele>
        <time>2022-06-19T05:38:19.000Z</time>
      </trkpt>
      <trkpt lat="44.59768" lon="2.39092">
        <ele>242.2</ele>
        <time>2022-06-19T05:38:45.000Z</time>
      </trkpt>
      <trkpt lat="44.59762" lon="2.39078">
        <ele>246.1</ele>
        <time>2022-06-19T05:39:16.000Z</time>
      </trkpt>
      <trkpt lat="44.59745" lon="2.3907">
        <ele>253.3</ele>
        <time>2022-06-19T05:39:42.000Z</time>
      </trkpt>
      <trkpt lat="44.59741" lon="2.39064">
        <ele>256.6</ele>
        <time>2022-06-19T05:40:30.000Z</time>
      </trkpt>
      <trkpt lat="44.59729" lon="2.39043">
        <ele>266.2</ele>
        <time>2022-06-19T05:41:03.000Z</time>
      </trkpt>
      <trkpt lat="44.59719" lon="2.39023">
        <ele>272.1</ele>
        <time>2022-06-19T05:42:18.000Z</time>
      </trkpt>
      <trkpt lat="44.59714" lon="2.3903">
        <ele>275</ele>
        <time>2022-06-19T05:42:57.000Z</time>
      </trkpt>
      <trkpt lat="44.59702" lon="2.39015">
        <ele>281.2</ele>
        <time>2022-06-19T05:43:37.000Z</time>
      </trkpt>
      <trkpt lat="44.59682" lon="2.38981">
        <ele>293.1</ele>
        <time>2022-06-19T05:44:24.000Z</time>
      </trkpt>
      <trkpt lat="44.59676" lon="2.38975">
        <ele>297</ele>
        <time>2022-06-19T05:45:19.000Z</time>
      </trkpt>
      <trkpt lat="44.59675" lon="2.38958">
        <ele>297.5</ele>
        <time>2022-06-19T05:46:20.000Z</time>
      </trkpt>
      <trkpt lat="44.59677" lon="2.38941">
        <ele>296.7</ele>
        <time>2022-06-19T05:46:41.000Z</time>
      </trkpt>
      <trkpt lat="44.59663" lon="2.38917">
        <ele>307.3</ele>
        <time>2022-06-19T05:47:22.000Z</time>
      </trkpt>
      <trkpt lat="44.59659" lon="2.38875">
        <ele>312.1</ele>
        <time>2022-06-19T05:48:02.000Z</time>
      </trkpt>
      <trkpt lat="44.59643" lon="2.38843">
        <ele>327.3</ele>
        <time>2022-06-19T05:49:00.000Z</time>
      </trkpt>
      <trkpt lat="44.59641" lon="2.38815">
        <ele>328.7</ele>
        <time>2022-06-19T05:49:45.000Z</time>
      </trkpt>
      <trkpt lat="44.59632" lon="2.38793">
        <ele>336.5</ele>
        <time>2022-06-19T05:50:31.000Z</time>
      </trkpt>
      <trkpt lat="44.59623" lon="2.38769">
        <ele>345.1</ele>
        <time>2022-06-19T05:51:11.000Z</time>
      </trkpt>
      <trkpt lat="44.59634" lon="2.38734">
        <ele>339.6</ele>
        <time>2022-06-19T05:51:55.000Z</time>
      </trkpt>
      <trkpt lat="44.59626" lon="2.38742">
        <ele>344.6</ele>
        <time>2022-06-19T05:52:37.000Z</time>
      </trkpt>
      <trkpt lat="44.59626" lon="2.38697">
        <ele>349.5</ele>
        <time>2022-06-19T05:53:53.000Z</time>
      </trkpt>
      <trkpt lat="44.59613" lon="2.38715">
        <ele>354.5</ele>
        <time>2022-06-19T05:54:26.000Z</time>
      </trkpt>
      <trkpt lat="44.59609" lon="2.38713">
        <ele>357.9</ele>
        <time>2022-06-19T05:56:09.000Z</time>
      </trkpt>
      <trkpt lat="44.59613" lon="2.38688">
        <ele>357.9</ele>
      </trkpt>
      <trkpt lat="44.59608" lon="2.38684">
        <ele>361.5</ele>
        <time>2022-06-19T05:59:30.000Z</time>
      </trkpt>
      <trkpt lat="44.59592" lon="2.38707">
        <ele>373.5</ele>
        <time>2022-06-19T06:00:08.000Z</time>
      </trkpt>
      <trkpt lat="44.59585" lon="2.38744">
        <ele>379.6</ele>
        <time>2022-06-19T06:00:46.000Z</time>
      </trkpt>
      <trkpt lat="44.59568" lon="2.3876">
        <ele>395</ele>
        <time>2022-06-19T06:01:20.000Z</time>
      </trkpt>
      <trkpt lat="44.59565" lon="2.38802">
        <ele>397.4</ele>
        <time>2022-06-19T06:02:05.000Z</time>
      </trkpt>
      <trkpt lat="44.59562" lon="2.38827">
        <ele>400.2</ele>
        <time>2022-06-19T06:02:44.000Z</time>
      </trkpt>
      <trkpt lat="44.59555" lon="2.38851">
        <ele>406.6</ele>
        <time>2022-06-19T06:03:22.000Z</time>
      </trkpt>
      <trkpt lat="44.59546" lon="2.3888">
        <ele>413</ele>
        <time>2022-06-19T06:04:07.000Z</time>
      </trkpt>
      <trkpt lat="44.59537" lon="2.38916">
        <ele>416.1</ele>
        <time>2022-06-19T06:04:49.000Z</time>
      </trkpt>
      <trkpt lat="44.59516" lon="2.38921">
        <ele>422.9</ele>
        <time>2022-06-19T06:05:19.000Z</time>
      </trkpt>
      <trkpt lat="44.59482" lon="2.38917">
        <ele>429</ele>
        <time>2022-06-19T06:05:53.000Z</time>
      </trkpt>
      <trkpt lat="44.59453" lon="2.38901">
        <ele>438.9</ele>
        <time>2022-06-19T06:06:28.000Z</time>
      </trkpt>
      <trkpt lat="44.59434" lon="2.38882">
        <ele>447</ele>
        <time>2022-06-19T06:06:55.000Z</time>
      </trkpt>
      <trkpt lat="44.59423" lon="2.38865">
        <ele>452.4</ele>
        <time>2022-06-19T06:07:23.000Z</time>
      </trkpt>
      <trkpt lat="44.59396" lon="2.38855">
        <ele>454.3</ele>
        <time>2022-06-19T06:07:54.000Z</time>
      </trkpt>
      <trkpt lat="44.59362" lon="2.38825">
        <ele>459.9</ele>
        <time>2022-06-19T06:08:31.000Z</time>
      </trkpt>
      <trkpt lat="44.59342" lon="2.38803">
        <ele>463.8</ele>
        <time>2022-06-19T06:08:55.000Z</time>
      </trkpt>
      <trkpt lat="44.59332" lon="2.38766">
        <ele>469.2</ele>
        <time>2022-06-19T06:09:37.000Z</time>
      </trkpt>
      <trkpt lat="44.59345" lon="2.38743">
        <ele>476.1</ele>
        <time>2022-06-19T06:10:15.000Z</time>
      </trkpt>
      <trkpt lat="44.59364" lon="2.38699">
        <ele>488.1</ele>
        <time>2022-06-19T06:10:58.000Z</time>
      </trkpt>
      <trkpt lat="44.59384" lon="2.38652">
        <ele>499.3</ele>
        <time>2022-06-19T06:11:39.000Z</time>
      </trkpt>
      <trkpt lat="44.59393" lon="2.38615">
        <ele>503.2</ele>
        <time>2022-06-19T06:12:05.000Z</time>
      </trkpt>
      <trkpt lat="44.59406" lon="2.38563">
        <ele>506.7</ele>
        <time>2022-06-19T06:12:44.000Z</time>
      </trkpt>
      <trkpt lat="44.59394" lon="2.38529">
        <ele>510.2</ele>
        <time>2022-06-19T06:13:17.000Z</time>
      </trkpt>
      <trkpt lat="44.59373" lon="2.38502">
        <ele>512.7</ele>
        <time>2022-06-19T06:13:54.000Z</time>
      </trkpt>
      <trkpt lat="44.59351" lon="2.38467">
        <ele>518.3</ele>
        <time>2022-06-19T06:14:37.000Z</time>
      </trkpt>
      <trkpt lat="44.59331" lon="2.38437">
        <ele>523.5</ele>
        <time>2022-06-19T06:15:45.000Z</time>
      </trkpt>
      <trkpt lat="44.59331" lon="2.38435">
        <ele>523.8</ele>
        <time>2022-06-19T06:19:29.000Z</time>
      </trkpt>
      <trkpt lat="44.59333" lon="2.38436">
        <ele>523.7</ele>
        <time>2022-06-19T06:24:49.000Z</time>
      </trkpt>
      <trkpt lat="44.5933" lon="2.38437">
        <ele>523.5</ele>
        <time>2022-06-19T06:27:03.000Z</time>
      </trkpt>
      <trkpt lat="44.59331" lon="2.38434">
        <ele>524</ele>
        <time>2022-06-19T06:29:52.000Z</time>
      </trkpt>
      <trkpt lat="44.5933" lon="2.38435">
        <ele>523.7</ele>
        <time>2022-06-19T06:32:22.000Z</time>
      </trkpt>
      <trkpt lat="44.5932" lon="2.38411">
        <ele>527.7</ele>
        <time>2022-06-19T06:33:06.000Z</time>
      </trkpt>
      <trkpt lat="44.59308" lon="2.38376">
        <ele>531.5</ele>
        <time>2022-06-19T06:33:33.000Z</time>
      </trkpt>
      <trkpt lat="44.59302" lon="2.38311">
        <ele>532.5</ele>
        <time>2022-06-19T06:34:14.000Z</time>
      </trkpt>
      <trkpt lat="44.59279" lon="2.38234">
        <ele>532.8</ele>
        <time>2022-06-19T06:35:02.000Z</time>
      </trkpt>
      <trkpt lat="44.59265" lon="2.38172">
        <ele>533.9</ele>
        <time>2022-06-19T06:35:45.000Z</time>
      </trkpt>
      <trkpt lat="44.59253" lon="2.38075">
        <ele>539.2</ele>
        <time>2022-06-19T06:36:42.000Z</time>
      </trkpt>
      <trkpt lat="44.59242" lon="2.38015">
        <ele>544.7</ele>
        <time>2022-06-19T06:37:22.000Z</time>
      </trkpt>
      <trkpt lat="44.59219" lon="2.37952">
        <ele>545.9</ele>
        <time>2022-06-19T06:38:05.000Z</time>
      </trkpt>
      <trkpt lat="44.59212" lon="2.3791">
        <ele>545.5</ele>
        <time>2022-06-19T06:39:00.000Z</time>
      </trkpt>
      <trkpt lat="44.59204" lon="2.37845">
        <ele>546</ele>
        <time>2022-06-19T06:39:38.000Z</time>
      </trkpt>
      <trkpt lat="44.59187" lon="2.37772">
        <ele>547.5</ele>
        <time>2022-06-19T06:40:25.000Z</time>
      </trkpt>
      <trkpt lat="44.59148" lon="2.37701">
        <ele>547.4</ele>
        <time>2022-06-19T06:41:18.000Z</time>
      </trkpt>
      <trkpt lat="44.59109" lon="2.37617">
        <ele>547.9</ele>
        <time>2022-06-19T06:42:19.000Z</time>
      </trkpt>
      <trkpt lat="44.59072" lon="2.3761">
        <ele>546.6</ele>
        <time>2022-06-19T06:43:36.000Z</time>
      </trkpt>
      <trkpt lat="44.5899" lon="2.37613">
        <ele>547.3</ele>
        <time>2022-06-19T06:44:43.000Z</time>
      </trkpt>
      <trkpt lat="44.58931" lon="2.37619">
        <ele>550.8</ele>
        <time>2022-06-19T06:45:34.000Z</time>
      </trkpt>
      <trkpt lat="44.58888" lon="2.37632">
        <ele>555.6</ele>
        <time>2022-06-19T06:46:24.000Z</time>
      </trkpt>
      <trkpt lat="44.58901" lon="2.37627">
        <ele>554.1</ele>
        <time>2022-06-19T06:47:47.000Z</time>
      </trkpt>
      <trkpt lat="44.58901" lon="2.37626">
        <ele>554.2</ele>
        <time>2022-06-19T06:48:22.000Z</time>
      </trkpt>
      <trkpt lat="44.58861" lon="2.37645">
        <ele>556.8</ele>
        <time>2022-06-19T06:49:33.000Z</time>
      </trkpt>
      <trkpt lat="44.58822" lon="2.37665">
        <ele>559.8</ele>
        <time>2022-06-19T06:50:33.000Z</time>
      </trkpt>
      <trkpt lat="44.58776" lon="2.37693">
        <ele>563.3</ele>
        <time>2022-06-19T06:51:23.000Z</time>
      </trkpt>
      <trkpt lat="44.58732" lon="2.37693">
        <ele>566.1</ele>
        <time>2022-06-19T06:52:02.000Z</time>
      </trkpt>
      <trkpt lat="44.5869" lon="2.37631">
        <ele>564.4</ele>
        <time>2022-06-19T06:52:53.000Z</time>
      </trkpt>
      <trkpt lat="44.5865" lon="2.37594">
        <ele>563.3</ele>
        <time>2022-06-19T06:53:31.000Z</time>
      </trkpt>
      <trkpt lat="44.58601" lon="2.37588">
        <ele>563.7</ele>
        <time>2022-06-19T06:54:06.000Z</time>
      </trkpt>
      <trkpt lat="44.58517" lon="2.37606">
        <ele>569.3</ele>
        <time>2022-06-19T06:55:15.000Z</time>
      </trkpt>
      <trkpt lat="44.5844" lon="2.37643">
        <ele>573.2</ele>
        <time>2022-06-19T06:56:20.000Z</time>
      </trkpt>
      <trkpt lat="44.58353" lon="2.37685">
        <ele>572.9</ele>
        <time>2022-06-19T06:57:36.000Z</time>
      </trkpt>
      <trkpt lat="44.58279" lon="2.37679">
        <ele>572.4</ele>
        <time>2022-06-19T06:58:36.000Z</time>
      </trkpt>
      <trkpt lat="44.5822" lon="2.37647">
        <ele>577.2</ele>
        <time>2022-06-19T06:59:29.000Z</time>
      </trkpt>
      <trkpt lat="44.58165" lon="2.37617">
        <ele>582.3</ele>
        <time>2022-06-19T07:00:18.000Z</time>
      </trkpt>
      <trkpt lat="44.58102" lon="2.37585">
        <ele>585.3</ele>
        <time>2022-06-19T07:01:15.000Z</time>
      </trkpt>
      <trkpt lat="44.58033" lon="2.37563">
        <ele>590.1</ele>
        <time>2022-06-19T07:02:11.000Z</time>
      </trkpt>
      <trkpt lat="44.58026" lon="2.37566">
        <ele>590.4</ele>
        <time>2022-06-19T07:03:46.000Z</time>
      </trkpt>
      <trkpt lat="44.58" lon="2.37575">
        <ele>592.2</ele>
        <time>2022-06-19T07:05:30.000Z</time>
      </trkpt>
      <trkpt lat="44.57981" lon="2.37583">
        <ele>593</ele>
        <time>2022-06-19T07:05:48.000Z</time>
      </trkpt>
      <trkpt lat="44.57943" lon="2.3761">
        <ele>594.8</ele>
        <time>2022-06-19T07:06:34.000Z</time>
      </trkpt>
      <trkpt lat="44.57937" lon="2.37688">
        <ele>595.4</ele>
        <time>2022-06-19T07:07:20.000Z</time>
      </trkpt>
      <trkpt lat="44.57933" lon="2.37737">
        <ele>597.4</ele>
        <time>2022-06-19T07:07:48.000Z</time>
      </trkpt>
      <trkpt lat="44.57921" lon="2.37805">
        <ele>598.3</ele>
        <time>2022-06-19T07:08:28.000Z</time>
      </trkpt>
      <trkpt lat="44.57908" lon="2.37909">
        <ele>597.3</ele>
        <time>2022-06-19T07:09:26.000Z</time>
      </trkpt>
      <trkpt lat="44.57885" lon="2.37996">
        <ele>597.7</ele>
        <time>2022-06-19T07:10:17.000Z</time>
      </trkpt>
      <trkpt lat="44.57843" lon="2.38098">
        <ele>600</ele>
        <time>2022-06-19T07:11:24.000Z</time>
      </trkpt>
      <trkpt lat="44.578" lon="2.38204">
        <ele>602.7</ele>
        <time>2022-06-19T07:12:34.000Z</time>
      </trkpt>
      <trkpt lat="44.57744" lon="2.38338">
        <ele>603.3</ele>
        <time>2022-06-19T07:13:59.000Z</time>
      </trkpt>
      <trkpt lat="44.5769" lon="2.38428">
        <ele>607.4</ele>
        <time>2022-06-19T07:15:08.000Z</time>
      </trkpt>
      <trkpt lat="44.57639" lon="2.3846">
        <ele>611.1</ele>
        <time>2022-06-19T07:15:52.000Z</time>
      </trkpt>
      <trkpt lat="44.57589" lon="2.38503">
        <ele>612.6</ele>
        <time>2022-06-19T07:16:37.000Z</time>
      </trkpt>
      <trkpt lat="44.57563" lon="2.38528">
        <ele>612.5</ele>
        <time>2022-06-19T07:17:01.000Z</time>
      </trkpt>
      <trkpt lat="44.57504" lon="2.38616">
        <ele>610.3</ele>
        <time>2022-06-19T07:18:07.000Z</time>
      </trkpt>
      <trkpt lat="44.57471" lon="2.38636">
        <ele>609.7</ele>
        <time>2022-06-19T07:18:34.000Z</time>
      </trkpt>
      <trkpt lat="44.57402" lon="2.38656">
        <ele>607.7</ele>
        <time>2022-06-19T07:19:28.000Z</time>
      </trkpt>
      <trkpt lat="44.57342" lon="2.38605">
        <ele>606.8</ele>
        <time>2022-06-19T07:20:23.000Z</time>
      </trkpt>
      <trkpt lat="44.57264" lon="2.38507">
        <ele>601.4</ele>
        <time>2022-06-19T07:21:39.000Z</time>
      </trkpt>
      <trkpt lat="44.57226" lon="2.38431">
        <ele>599.6</ele>
        <time>2022-06-19T07:22:30.000Z</time>
      </trkpt>
      <trkpt lat="44.57218" lon="2.38361">
        <ele>597.7</ele>
        <time>2022-06-19T07:23:09.000Z</time>
      </trkpt>
      <trkpt lat="44.57231" lon="2.38258">
        <ele>597</ele>
        <time>2022-06-19T07:24:04.000Z</time>
      </trkpt>
      <trkpt lat="44.57238" lon="2.38186">
        <ele>598.3</ele>
        <time>2022-06-19T07:24:43.000Z</time>
      </trkpt>
      <trkpt lat="44.57178" lon="2.38125">
        <ele>599.5</ele>
        <time>2022-06-19T07:25:41.000Z</time>
      </trkpt>
      <trkpt lat="44.57111" lon="2.3806">
        <ele>600.3</ele>
        <time>2022-06-19T07:26:47.000Z</time>
      </trkpt>
      <trkpt lat="44.57041" lon="2.38022">
        <ele>597.5</ele>
        <time>2022-06-19T07:27:43.000Z</time>
      </trkpt>
      <trkpt lat="44.56977" lon="2.37986">
        <ele>595.3</ele>
        <time>2022-06-19T07:28:41.000Z</time>
      </trkpt>
      <trkpt lat="44.56929" lon="2.37911">
        <ele>590.1</ele>
        <time>2022-06-19T07:29:35.000Z</time>
      </trkpt>
      <trkpt lat="44.56895" lon="2.3785">
        <ele>583.4</ele>
        <time>2022-06-19T07:30:17.000Z</time>
      </trkpt>
      <trkpt lat="44.56882" lon="2.37879">
        <ele>580.3</ele>
        <time>2022-06-19T07:30:43.000Z</time>
      </trkpt>
      <trkpt lat="44.56876" lon="2.37879">
        <ele>578.7</ele>
        <time>2022-06-19T07:31:18.000Z</time>
      </trkpt>
      <trkpt lat="44.56837" lon="2.37862">
        <ele>572.5</ele>
        <time>2022-06-19T07:32:00.000Z</time>
      </trkpt>
      <trkpt lat="44.56804" lon="2.37873">
        <ele>568.7</ele>
        <time>2022-06-19T07:32:29.000Z</time>
      </trkpt>
      <trkpt lat="44.56768" lon="2.37889">
        <ele>562</ele>
        <time>2022-06-19T07:33:01.000Z</time>
      </trkpt>
      <trkpt lat="44.56727" lon="2.37873">
        <ele>556</ele>
        <time>2022-06-19T07:33:49.000Z</time>
      </trkpt>
      <trkpt lat="44.56701" lon="2.37813">
        <ele>551.9</ele>
        <time>2022-06-19T07:34:29.000Z</time>
      </trkpt>
      <trkpt lat="44.56664" lon="2.37761">
        <ele>546.9</ele>
        <time>2022-06-19T07:35:09.000Z</time>
      </trkpt>
      <trkpt lat="44.56624" lon="2.37717">
        <ele>541.9</ele>
        <time>2022-06-19T07:35:49.000Z</time>
      </trkpt>
      <trkpt lat="44.56606" lon="2.37675">
        <ele>540.8</ele>
        <time>2022-06-19T07:36:30.000Z</time>
      </trkpt>
      <trkpt lat="44.56596" lon="2.37653">
        <ele>537.6</ele>
        <time>2022-06-19T07:36:52.000Z</time>
      </trkpt>
      <trkpt lat="44.56569" lon="2.3765">
        <ele>532.1</ele>
        <time>2022-06-19T07:37:39.000Z</time>
      </trkpt>
      <trkpt lat="44.56539" lon="2.37649">
        <ele>526.5</ele>
        <time>2022-06-19T07:38:12.000Z</time>
      </trkpt>
      <trkpt lat="44.56531" lon="2.37613">
        <ele>521.9</ele>
        <time>2022-06-19T07:38:44.000Z</time>
      </trkpt>
      <trkpt lat="44.56548" lon="2.37566">
        <ele>521.9</ele>
        <time>2022-06-19T07:40:11.000Z</time>
      </trkpt>
      <trkpt lat="44.56556" lon="2.37532">
        <ele>519.5</ele>
        <time>2022-06-19T07:40:41.000Z</time>
      </trkpt>
      <trkpt lat="44.56566" lon="2.37509">
        <ele>518.3</ele>
        <time>2022-06-19T07:41:05.000Z</time>
      </trkpt>
      <trkpt lat="44.56581" lon="2.37502">
        <ele>519.8</ele>
        <time>2022-06-19T08:12:49.000Z</time>
      </trkpt>
      <trkpt lat="44.566" lon="2.37474">
        <ele>520.9</ele>
        <time>2022-06-19T08:30:42.000Z</time>
      </trkpt>
      <trkpt lat="44.56621" lon="2.37423">
        <ele>524.7</ele>
        <time>2022-06-19T08:31:26.000Z</time>
      </trkpt>
      <trkpt lat="44.56641" lon="2.37371">
        <ele>529.4</ele>
        <time>2022-06-19T08:32:08.000Z</time>
      </trkpt>
      <trkpt lat="44.56646" lon="2.37325">
        <ele>533.3</ele>
        <time>2022-06-19T08:32:49.000Z</time>
      </trkpt>
      <trkpt lat="44.56615" lon="2.37291">
        <ele>535.9</ele>
        <time>2022-06-19T08:33:32.000Z</time>
      </trkpt>
      <trkpt lat="44.56628" lon="2.37223">
        <ele>543.4</ele>
        <time>2022-06-19T08:34:26.000Z</time>
      </trkpt>
      <trkpt lat="44.56651" lon="2.37175">
        <ele>548.6</ele>
        <time>2022-06-19T08:35:09.000Z</time>
      </trkpt>
      <trkpt lat="44.56682" lon="2.37133">
        <ele>553.6</ele>
        <time>2022-06-19T08:35:47.000Z</time>
      </trkpt>
      <trkpt lat="44.56718" lon="2.37085">
        <ele>559.1</ele>
        <time>2022-06-19T08:36:30.000Z</time>
      </trkpt>
      <trkpt lat="44.56743" lon="2.37047">
        <ele>568.1</ele>
        <time>2022-06-19T08:37:05.000Z</time>
      </trkpt>
      <trkpt lat="44.56759" lon="2.37001">
        <ele>571.8</ele>
        <time>2022-06-19T08:37:37.000Z</time>
      </trkpt>
      <trkpt lat="44.56778" lon="2.36945">
        <ele>575</ele>
        <time>2022-06-19T08:38:12.000Z</time>
      </trkpt>
      <trkpt lat="44.56763" lon="2.36899">
        <ele>580.1</ele>
        <time>2022-06-19T08:38:42.000Z</time>
      </trkpt>
      <trkpt lat="44.56753" lon="2.36892">
        <ele>582.2</ele>
        <time>2022-06-19T08:40:05.000Z</time>
      </trkpt>
      <trkpt lat="44.5673" lon="2.36888">
        <ele>583.1</ele>
        <time>2022-06-19T08:40:50.000Z</time>
      </trkpt>
      <trkpt lat="44.56724" lon="2.36837">
        <ele>588.9</ele>
        <time>2022-06-19T08:41:32.000Z</time>
      </trkpt>
      <trkpt lat="44.56733" lon="2.36798">
        <ele>591.7</ele>
        <time>2022-06-19T08:42:02.000Z</time>
      </trkpt>
      <trkpt lat="44.5673" lon="2.36762">
        <ele>594.3</ele>
        <time>2022-06-19T08:42:29.000Z</time>
      </trkpt>
      <trkpt lat="44.56711" lon="2.36662">
        <ele>599.5</ele>
        <time>2022-06-19T08:43:34.000Z</time>
      </trkpt>
      <trkpt lat="44.56714" lon="2.36608">
        <ele>600.6</ele>
        <time>2022-06-19T08:44:48.000Z</time>
      </trkpt>
      <trkpt lat="44.56708" lon="2.366">
        <ele>599.7</ele>
        <time>2022-06-19T08:47:41.000Z</time>
      </trkpt>
      <trkpt lat="44.56699" lon="2.36484">
        <ele>599.1</ele>
        <time>2022-06-19T08:48:44.000Z</time>
      </trkpt>
      <trkpt lat="44.56709" lon="2.36377">
        <ele>603.5</ele>
        <time>2022-06-19T08:49:42.000Z</time>
      </trkpt>
      <trkpt lat="44.56727" lon="2.36266">
        <ele>606.9</ele>
        <time>2022-06-19T08:50:49.000Z</time>
      </trkpt>
      <trkpt lat="44.56743" lon="2.36172">
        <ele>607.1</ele>
        <time>2022-06-19T08:51:40.000Z</time>
      </trkpt>
      <trkpt lat="44.56772" lon="2.36059">
        <ele>610.6</ele>
        <time>2022-06-19T08:52:46.000Z</time>
      </trkpt>
      <trkpt lat="44.56818" lon="2.36001">
        <ele>613.9</ele>
        <time>2022-06-19T08:53:33.000Z</time>
      </trkpt>
      <trkpt lat="44.56868" lon="2.35931">
        <ele>617.5</ele>
        <time>2022-06-19T08:54:30.000Z</time>
      </trkpt>
      <trkpt lat="44.5687" lon="2.35868">
        <ele>621.8</ele>
        <time>2022-06-19T08:55:08.000Z</time>
      </trkpt>
      <trkpt lat="44.56839" lon="2.35775">
        <ele>626.5</ele>
        <time>2022-06-19T08:56:06.000Z</time>
      </trkpt>
      <trkpt lat="44.5683" lon="2.35667">
        <ele>626.1</ele>
        <time>2022-06-19T08:57:06.000Z</time>
      </trkpt>
      <trkpt lat="44.56843" lon="2.35577">
        <ele>625.5</ele>
        <time>2022-06-19T08:58:00.000Z</time>
      </trkpt>
      <trkpt lat="44.56852" lon="2.35528">
        <ele>628.6</ele>
        <time>2022-06-19T08:58:29.000Z</time>
      </trkpt>
      <trkpt lat="44.56874" lon="2.35439">
        <ele>630.5</ele>
        <time>2022-06-19T08:59:19.000Z</time>
      </trkpt>
      <trkpt lat="44.56909" lon="2.35357">
        <ele>635.2</ele>
        <time>2022-06-19T09:00:11.000Z</time>
      </trkpt>
      <trkpt lat="44.5691" lon="2.35356">
        <ele>635.2</ele>
        <time>2022-06-19T09:04:01.000Z</time>
      </trkpt>
      <trkpt lat="44.56905" lon="2.35297">
        <ele>633.2</ele>
        <time>2022-06-19T09:04:51.000Z</time>
      </trkpt>
      <trkpt lat="44.56926" lon="2.35223">
        <ele>632.7</ele>
        <time>2022-06-19T09:05:38.000Z</time>
      </trkpt>
      <trkpt lat="44.56957" lon="2.35141">
        <ele>631.7</ele>
        <time>2022-06-19T09:06:33.000Z</time>
      </trkpt>
      <trkpt lat="44.56985" lon="2.35098">
        <ele>627.2</ele>
        <time>2022-06-19T09:07:09.000Z</time>
      </trkpt>
      <trkpt lat="44.5702" lon="2.35023">
        <ele>622.5</ele>
        <time>2022-06-19T09:08:01.000Z</time>
      </trkpt>
      <trkpt lat="44.57013" lon="2.34965">
        <ele>619</ele>
        <time>2022-06-19T09:08:41.000Z</time>
      </trkpt>
      <trkpt lat="44.56997" lon="2.34916">
        <ele>616.8</ele>
        <time>2022-06-19T09:09:16.000Z</time>
      </trkpt>
      <trkpt lat="44.56981" lon="2.34872">
        <ele>615.3</ele>
        <time>2022-06-19T09:09:46.000Z</time>
      </trkpt>
      <trkpt lat="44.56958" lon="2.34826">
        <ele>617.2</ele>
        <time>2022-06-19T09:10:20.000Z</time>
      </trkpt>
      <trkpt lat="44.56932" lon="2.34756">
        <ele>620.4</ele>
        <time>2022-06-19T09:11:07.000Z</time>
      </trkpt>
      <trkpt lat="44.569" lon="2.34717">
        <ele>620.5</ele>
        <time>2022-06-19T09:11:45.000Z</time>
      </trkpt>
      <trkpt lat="44.56872" lon="2.34669">
        <ele>619.1</ele>
        <time>2022-06-19T09:12:20.000Z</time>
      </trkpt>
      <trkpt lat="44.56857" lon="2.34613">
        <ele>613.6</ele>
        <time>2022-06-19T09:12:52.000Z</time>
      </trkpt>
      <trkpt lat="44.56845" lon="2.34545">
        <ele>606.5</ele>
        <time>2022-06-19T09:13:28.000Z</time>
      </trkpt>
      <trkpt lat="44.56806" lon="2.34494">
        <ele>603</ele>
        <time>2022-06-19T09:14:07.000Z</time>
      </trkpt>
      <trkpt lat="44.56758" lon="2.34446">
        <ele>601</ele>
        <time>2022-06-19T09:14:53.000Z</time>
      </trkpt>
      <trkpt lat="44.56723" lon="2.34349">
        <ele>601.3</ele>
        <time>2022-06-19T09:15:48.000Z</time>
      </trkpt>
      <trkpt lat="44.56717" lon="2.34222">
        <ele>604.5</ele>
        <time>2022-06-19T09:16:58.000Z</time>
      </trkpt>
      <trkpt lat="44.56728" lon="2.3412">
        <ele>607.7</ele>
        <time>2022-06-19T09:18:00.000Z</time>
      </trkpt>
      <trkpt lat="44.56729" lon="2.34109">
        <ele>607.7</ele>
        <time>2022-06-19T09:19:14.000Z</time>
      </trkpt>
      <trkpt lat="44.56736" lon="2.34023">
        <ele>603.6</ele>
        <time>2022-06-19T09:20:02.000Z</time>
      </trkpt>
      <trkpt lat="44.56746" lon="2.3397">
        <ele>600.6</ele>
        <time>2022-06-19T09:20:34.000Z</time>
      </trkpt>
      <trkpt lat="44.5676" lon="2.33904">
        <ele>597</ele>
        <time>2022-06-19T09:21:13.000Z</time>
      </trkpt>
      <trkpt lat="44.56773" lon="2.33827">
        <ele>593.5</ele>
        <time>2022-06-19T09:21:58.000Z</time>
      </trkpt>
      <trkpt lat="44.56785" lon="2.33694">
        <ele>591.3</ele>
        <time>2022-06-19T09:23:15.000Z</time>
      </trkpt>
      <trkpt lat="44.56778" lon="2.33582">
        <ele>591.1</ele>
        <time>2022-06-19T09:24:21.000Z</time>
      </trkpt>
      <trkpt lat="44.56745" lon="2.33485">
        <ele>593.5</ele>
        <time>2022-06-19T09:25:24.000Z</time>
      </trkpt>
      <trkpt lat="44.56698" lon="2.33477">
        <ele>589.7</ele>
        <time>2022-06-19T09:26:21.000Z</time>
      </trkpt>
      <trkpt lat="44.56657" lon="2.33502">
        <ele>581.5</ele>
        <time>2022-06-19T09:27:01.000Z</time>
      </trkpt>
      <trkpt lat="44.56636" lon="2.33518">
        <ele>576.7</ele>
        <time>2022-06-19T09:27:23.000Z</time>
      </trkpt>
      <trkpt lat="44.56609" lon="2.33482">
        <ele>569</ele>
        <time>2022-06-19T09:27:57.000Z</time>
      </trkpt>
      <trkpt lat="44.56562" lon="2.33442">
        <ele>562.8</ele>
        <time>2022-06-19T09:28:39.000Z</time>
      </trkpt>
      <trkpt lat="44.56539" lon="2.33427">
        <ele>558.6</ele>
        <time>2022-06-19T09:29:04.000Z</time>
      </trkpt>
      <trkpt lat="44.56541" lon="2.33395">
        <ele>554.4</ele>
        <time>2022-06-19T09:29:29.000Z</time>
      </trkpt>
      <trkpt lat="44.56551" lon="2.33357">
        <ele>549.4</ele>
        <time>2022-06-19T09:29:55.000Z</time>
      </trkpt>
      <trkpt lat="44.56528" lon="2.33344">
        <ele>546.1</ele>
        <time>2022-06-19T09:30:23.000Z</time>
      </trkpt>
      <trkpt lat="44.56483" lon="2.33299">
        <ele>535.9</ele>
        <time>2022-06-19T09:31:09.000Z</time>
      </trkpt>
      <trkpt lat="44.56475" lon="2.33266">
        <ele>534.8</ele>
        <time>2022-06-19T09:31:30.000Z</time>
      </trkpt>
      <trkpt lat="44.5648" lon="2.3324">
        <ele>538.1</ele>
        <time>2022-06-19T09:31:47.000Z</time>
      </trkpt>
      <trkpt lat="44.56504" lon="2.33205">
        <ele>545.8</ele>
        <time>2022-06-19T09:32:19.000Z</time>
      </trkpt>
      <trkpt lat="44.56517" lon="2.33188">
        <ele>547.6</ele>
        <time>2022-06-19T09:32:41.000Z</time>
      </trkpt>
      <trkpt lat="44.56518" lon="2.33185">
        <ele>547.3</ele>
        <time>2022-06-19T09:34:11.000Z</time>
      </trkpt>
      <trkpt lat="44.56533" lon="2.33158">
        <ele>550</ele>
        <time>2022-06-19T09:36:01.000Z</time>
      </trkpt>
      <trkpt lat="44.56539" lon="2.33119">
        <ele>550.8</ele>
        <time>2022-06-19T09:36:27.000Z</time>
      </trkpt>
      <trkpt lat="44.56569" lon="2.33064">
        <ele>550.9</ele>
        <time>2022-06-19T09:37:10.000Z</time>
      </trkpt>
      <trkpt lat="44.56591" lon="2.33031">
        <ele>551.1</ele>
        <time>2022-06-19T09:37:37.000Z</time>
      </trkpt>
      <trkpt lat="44.5664" lon="2.33006">
        <ele>557.6</ele>
        <time>2022-06-19T09:38:17.000Z</time>
      </trkpt>
      <trkpt lat="44.56677" lon="2.32983">
        <ele>559.7</ele>
        <time>2022-06-19T09:38:45.000Z</time>
      </trkpt>
      <trkpt lat="44.56688" lon="2.33">
        <ele>561.5</ele>
      </trkpt>
      <trkpt lat="44.5668" lon="2.3298">
        <ele>559.6</ele>
        <time>2022-06-19T10:49:59.000Z</time>
      </trkpt>
      <trkpt lat="44.56674" lon="2.32962">
        <ele>558.5</ele>
      </trkpt>
      <trkpt lat="44.56652" lon="2.32883">
        <ele>555.6</ele>
        <time>2022-06-19T10:55:00.000Z</time>
      </trkpt>
      <trkpt lat="44.56639" lon="2.32839">
        <ele>557.6</ele>
        <time>2022-06-19T10:55:26.000Z</time>
      </trkpt>
      <trkpt lat="44.56625" lon="2.32783">
        <ele>558.2</ele>
        <time>2022-06-19T10:56:02.000Z</time>
      </trkpt>
      <trkpt lat="44.5661" lon="2.3266">
        <ele>563.5</ele>
        <time>2022-06-19T10:57:16.000Z</time>
      </trkpt>
      <trkpt lat="44.56594" lon="2.32598">
        <ele>567.6</ele>
        <time>2022-06-19T10:57:57.000Z</time>
      </trkpt>
      <trkpt lat="44.56572" lon="2.32545">
        <ele>571.7</ele>
        <time>2022-06-19T10:58:35.000Z</time>
      </trkpt>
      <trkpt lat="44.56546" lon="2.32506">
        <ele>577</ele>
        <time>2022-06-19T10:59:11.000Z</time>
      </trkpt>
      <trkpt lat="44.56516" lon="2.3247">
        <ele>578.7</ele>
        <time>2022-06-19T10:59:48.000Z</time>
      </trkpt>
      <trkpt lat="44.56457" lon="2.32429">
        <ele>578.2</ele>
        <time>2022-06-19T11:00:36.000Z</time>
      </trkpt>
      <trkpt lat="44.56424" lon="2.32385">
        <ele>580</ele>
        <time>2022-06-19T11:01:12.000Z</time>
      </trkpt>
      <trkpt lat="44.56377" lon="2.32339">
        <ele>573.2</ele>
        <time>2022-06-19T11:01:56.000Z</time>
      </trkpt>
      <trkpt lat="44.56363" lon="2.32274">
        <ele>569.5</ele>
        <time>2022-06-19T11:02:34.000Z</time>
      </trkpt>
      <trkpt lat="44.56345" lon="2.32178">
        <ele>565.7</ele>
        <time>2022-06-19T11:03:26.000Z</time>
      </trkpt>
      <trkpt lat="44.56323" lon="2.32116">
        <ele>562.2</ele>
        <time>2022-06-19T11:04:02.000Z</time>
      </trkpt>
      <trkpt lat="44.56307" lon="2.32074">
        <ele>559.1</ele>
        <time>2022-06-19T11:04:27.000Z</time>
      </trkpt>
      <trkpt lat="44.56304" lon="2.32073">
        <ele>558.8</ele>
        <time>2022-06-19T11:05:35.000Z</time>
      </trkpt>
      <trkpt lat="44.56264" lon="2.31982">
        <ele>553.5</ele>
        <time>2022-06-19T11:06:38.000Z</time>
      </trkpt>
      <trkpt lat="44.56251" lon="2.31934">
        <ele>552.2</ele>
        <time>2022-06-19T11:08:29.000Z</time>
      </trkpt>
      <trkpt lat="44.56234" lon="2.31834">
        <ele>550.4</ele>
        <time>2022-06-19T11:09:30.000Z</time>
      </trkpt>
      <trkpt lat="44.56226" lon="2.31745">
        <ele>551.4</ele>
        <time>2022-06-19T11:10:26.000Z</time>
      </trkpt>
      <trkpt lat="44.56221" lon="2.31686">
        <ele>546</ele>
        <time>2022-06-19T11:11:05.000Z</time>
      </trkpt>
      <trkpt lat="44.56216" lon="2.31631">
        <ele>540.2</ele>
        <time>2022-06-19T11:11:41.000Z</time>
      </trkpt>
      <trkpt lat="44.56204" lon="2.31549">
        <ele>535.8</ele>
        <time>2022-06-19T11:12:28.000Z</time>
      </trkpt>
      <trkpt lat="44.56188" lon="2.3146">
        <ele>535.9</ele>
        <time>2022-06-19T11:13:22.000Z</time>
      </trkpt>
      <trkpt lat="44.56185" lon="2.31389">
        <ele>537.5</ele>
        <time>2022-06-19T11:14:05.000Z</time>
      </trkpt>
      <trkpt lat="44.56161" lon="2.31342">
        <ele>536.9</ele>
        <time>2022-06-19T11:14:42.000Z</time>
      </trkpt>
      <trkpt lat="44.5613" lon="2.31312">
        <ele>533.8</ele>
        <time>2022-06-19T11:15:14.000Z</time>
      </trkpt>
      <trkpt lat="44.56096" lon="2.31252">
        <ele>529.1</ele>
        <time>2022-06-19T11:16:02.000Z</time>
      </trkpt>
      <trkpt lat="44.56079" lon="2.31202">
        <ele>526.1</ele>
        <time>2022-06-19T11:16:35.000Z</time>
      </trkpt>
      <trkpt lat="44.56052" lon="2.31114">
        <ele>521.4</ele>
        <time>2022-06-19T11:17:28.000Z</time>
      </trkpt>
      <trkpt lat="44.56031" lon="2.31061">
        <ele>517.3</ele>
        <time>2022-06-19T11:18:04.000Z</time>
      </trkpt>
      <trkpt lat="44.56017" lon="2.31006">
        <ele>513</ele>
        <time>2022-06-19T11:18:43.000Z</time>
      </trkpt>
      <trkpt lat="44.56002" lon="2.30924">
        <ele>507.3</ele>
        <time>2022-06-19T11:19:34.000Z</time>
      </trkpt>
      <trkpt lat="44.56019" lon="2.30818">
        <ele>507</ele>
        <time>2022-06-19T11:20:35.000Z</time>
      </trkpt>
      <trkpt lat="44.56023" lon="2.30712">
        <ele>506</ele>
        <time>2022-06-19T11:21:36.000Z</time>
      </trkpt>
      <trkpt lat="44.56008" lon="2.3059">
        <ele>506.6</ele>
        <time>2022-06-19T11:22:47.000Z</time>
      </trkpt>
      <trkpt lat="44.56009" lon="2.30524">
        <ele>505.3</ele>
        <time>2022-06-19T11:23:28.000Z</time>
      </trkpt>
      <trkpt lat="44.56028" lon="2.30416">
        <ele>504.9</ele>
        <time>2022-06-19T11:24:35.000Z</time>
      </trkpt>
      <trkpt lat="44.56026" lon="2.30346">
        <ele>504</ele>
        <time>2022-06-19T11:25:22.000Z</time>
      </trkpt>
      <trkpt lat="44.56026" lon="2.30289">
        <ele>497.1</ele>
        <time>2022-06-19T11:26:00.000Z</time>
      </trkpt>
      <trkpt lat="44.56024" lon="2.3026">
        <ele>493.8</ele>
        <time>2022-06-19T11:26:21.000Z</time>
      </trkpt>
      <trkpt lat="44.56026" lon="2.30211">
        <ele>488.9</ele>
        <time>2022-06-19T11:26:55.000Z</time>
      </trkpt>
      <trkpt lat="44.5603" lon="2.30163">
        <ele>483</ele>
        <time>2022-06-19T11:27:25.000Z</time>
      </trkpt>
      <trkpt lat="44.56028" lon="2.30127">
        <ele>479.6</ele>
        <time>2022-06-19T11:27:52.000Z</time>
      </trkpt>
      <trkpt lat="44.56032" lon="2.30118">
        <ele>479.1</ele>
        <time>2022-06-19T11:29:31.000Z</time>
      </trkpt>
      <trkpt lat="44.56026" lon="2.30108">
        <ele>478.5</ele>
        <time>2022-06-19T11:33:41.000Z</time>
      </trkpt>
      <trkpt lat="44.56016" lon="2.30038">
        <ele>473.2</ele>
        <time>2022-06-19T11:34:28.000Z</time>
      </trkpt>
      <trkpt lat="44.56004" lon="2.29986">
        <ele>468.1</ele>
        <time>2022-06-19T11:35:06.000Z</time>
      </trkpt>
      <trkpt lat="44.55994" lon="2.29951">
        <ele>462.4</ele>
        <time>2022-06-19T11:35:31.000Z</time>
      </trkpt>
      <trkpt lat="44.55989" lon="2.29913">
        <ele>458.2</ele>
        <time>2022-06-19T11:35:57.000Z</time>
      </trkpt>
      <trkpt lat="44.55983" lon="2.29859">
        <ele>453.5</ele>
        <time>2022-06-19T11:36:32.000Z</time>
      </trkpt>
      <trkpt lat="44.55985" lon="2.29788">
        <ele>449.6</ele>
        <time>2022-06-19T11:37:13.000Z</time>
      </trkpt>
      <trkpt lat="44.5601" lon="2.2974">
        <ele>447.7</ele>
        <time>2022-06-19T11:37:49.000Z</time>
      </trkpt>
      <trkpt lat="44.56049" lon="2.29684">
        <ele>444.7</ele>
        <time>2022-06-19T11:38:33.000Z</time>
      </trkpt>
      <trkpt lat="44.56097" lon="2.29623">
        <ele>440.1</ele>
        <time>2022-06-19T11:39:28.000Z</time>
      </trkpt>
      <trkpt lat="44.56117" lon="2.29562">
        <ele>437</ele>
        <time>2022-06-19T11:40:10.000Z</time>
      </trkpt>
      <trkpt lat="44.56114" lon="2.29526">
        <ele>435.2</ele>
        <time>2022-06-19T11:40:34.000Z</time>
      </trkpt>
      <trkpt lat="44.56091" lon="2.29457">
        <ele>431.5</ele>
        <time>2022-06-19T11:41:22.000Z</time>
      </trkpt>
      <trkpt lat="44.56095" lon="2.2937">
        <ele>427.7</ele>
        <time>2022-06-19T11:42:16.000Z</time>
      </trkpt>
      <trkpt lat="44.5611" lon="2.29278">
        <ele>427.9</ele>
        <time>2022-06-19T11:43:10.000Z</time>
      </trkpt>
      <trkpt lat="44.56149" lon="2.29199">
        <ele>428.7</ele>
        <time>2022-06-19T11:44:09.000Z</time>
      </trkpt>
      <trkpt lat="44.56198" lon="2.29121">
        <ele>430.7</ele>
        <time>2022-06-19T11:45:09.000Z</time>
      </trkpt>
      <trkpt lat="44.56242" lon="2.29053">
        <ele>431.6</ele>
        <time>2022-06-19T11:46:01.000Z</time>
      </trkpt>
      <trkpt lat="44.56272" lon="2.28982">
        <ele>432.4</ele>
        <time>2022-06-19T11:46:49.000Z</time>
      </trkpt>
      <trkpt lat="44.56268" lon="2.28904">
        <ele>429.1</ele>
        <time>2022-06-19T11:47:38.000Z</time>
      </trkpt>
      <trkpt lat="44.56263" lon="2.2886">
        <ele>425.3</ele>
        <time>2022-06-19T11:48:05.000Z</time>
      </trkpt>
      <trkpt lat="44.56236" lon="2.28791">
        <ele>419</ele>
        <time>2022-06-19T11:48:54.000Z</time>
      </trkpt>
      <trkpt lat="44.56218" lon="2.28741">
        <ele>416</ele>
        <time>2022-06-19T11:49:28.000Z</time>
      </trkpt>
      <trkpt lat="44.56221" lon="2.28685">
        <ele>412.7</ele>
        <time>2022-06-19T11:50:04.000Z</time>
      </trkpt>
      <trkpt lat="44.56243" lon="2.28615">
        <ele>408.1</ele>
        <time>2022-06-19T11:50:48.000Z</time>
      </trkpt>
      <trkpt lat="44.56254" lon="2.28607">
        <ele>408.8</ele>
        <time>2022-06-19T11:52:02.000Z</time>
      </trkpt>
      <trkpt lat="44.56262" lon="2.28573">
        <ele>403.9</ele>
        <time>2022-06-19T11:52:42.000Z</time>
      </trkpt>
      <trkpt lat="44.56295" lon="2.28513">
        <ele>396</ele>
        <time>2022-06-19T11:53:30.000Z</time>
      </trkpt>
      <trkpt lat="44.56332" lon="2.28457">
        <ele>392.5</ele>
        <time>2022-06-19T11:54:14.000Z</time>
      </trkpt>
      <trkpt lat="44.56359" lon="2.28417">
        <ele>390.8</ele>
        <time>2022-06-19T11:54:48.000Z</time>
      </trkpt>
      <trkpt lat="44.56384" lon="2.284">
        <ele>388.7</ele>
        <time>2022-06-19T11:55:09.000Z</time>
      </trkpt>
      <trkpt lat="44.56385" lon="2.28391">
        <ele>387.3</ele>
        <time>2022-06-19T11:55:40.000Z</time>
      </trkpt>
      <trkpt lat="44.56372" lon="2.28328">
        <ele>378.3</ele>
        <time>2022-06-19T11:56:17.000Z</time>
      </trkpt>
      <trkpt lat="44.56375" lon="2.28275">
        <ele>370.9</ele>
        <time>2022-06-19T11:56:51.000Z</time>
      </trkpt>
      <trkpt lat="44.56374" lon="2.28205">
        <ele>361.6</ele>
        <time>2022-06-19T11:57:32.000Z</time>
      </trkpt>
      <trkpt lat="44.56366" lon="2.28149">
        <ele>358.5</ele>
        <time>2022-06-19T11:58:06.000Z</time>
      </trkpt>
      <trkpt lat="44.56357" lon="2.28092">
        <ele>353.2</ele>
        <time>2022-06-19T11:58:43.000Z</time>
      </trkpt>
      <trkpt lat="44.5635" lon="2.28033">
        <ele>349.3</ele>
        <time>2022-06-19T11:59:18.000Z</time>
      </trkpt>
      <trkpt lat="44.56351" lon="2.27979">
        <ele>346.8</ele>
        <time>2022-06-19T11:59:47.000Z</time>
      </trkpt>
      <trkpt lat="44.56361" lon="2.27908">
        <ele>342.7</ele>
        <time>2022-06-19T12:00:29.000Z</time>
      </trkpt>
      <trkpt lat="44.56368" lon="2.27864">
        <ele>338.5</ele>
        <time>2022-06-19T12:01:13.000Z</time>
      </trkpt>
      <trkpt lat="44.56366" lon="2.27868">
        <ele>339.2</ele>
        <time>2022-06-19T12:03:16.000Z</time>
      </trkpt>
      <trkpt lat="44.56364" lon="2.27868">
        <ele>339.8</ele>
        <time>2022-06-19T12:05:03.000Z</time>
      </trkpt>
      <trkpt lat="44.56349" lon="2.27809">
        <ele>337.3</ele>
        <time>2022-06-19T12:06:49.000Z</time>
      </trkpt>
      <trkpt lat="44.56367" lon="2.27741">
        <ele>334.9</ele>
        <time>2022-06-19T12:07:29.000Z</time>
      </trkpt>
      <trkpt lat="44.56384" lon="2.2768">
        <ele>334.4</ele>
        <time>2022-06-19T12:08:07.000Z</time>
      </trkpt>
      <trkpt lat="44.56412" lon="2.27602">
        <ele>334.8</ele>
        <time>2022-06-19T12:08:58.000Z</time>
      </trkpt>
      <trkpt lat="44.56426" lon="2.27513">
        <ele>336.1</ele>
        <time>2022-06-19T12:09:51.000Z</time>
      </trkpt>
      <trkpt lat="44.56455" lon="2.27459">
        <ele>337.2</ele>
        <time>2022-06-19T12:10:30.000Z</time>
      </trkpt>
      <trkpt lat="44.56472" lon="2.27408">
        <ele>338.4</ele>
        <time>2022-06-19T12:11:04.000Z</time>
      </trkpt>
      <trkpt lat="44.56493" lon="2.2736">
        <ele>336.4</ele>
        <time>2022-06-19T12:11:30.000Z</time>
      </trkpt>
      <trkpt lat="44.56509" lon="2.27268">
        <ele>337</ele>
        <time>2022-06-19T12:12:21.000Z</time>
      </trkpt>
      <trkpt lat="44.56498" lon="2.27179">
        <ele>341.3</ele>
        <time>2022-06-19T12:13:11.000Z</time>
      </trkpt>
      <trkpt lat="44.56477" lon="2.27097">
        <ele>343.4</ele>
        <time>2022-06-19T12:13:57.000Z</time>
      </trkpt>
      <trkpt lat="44.5645" lon="2.27012">
        <ele>343.6</ele>
        <time>2022-06-19T12:14:47.000Z</time>
      </trkpt>
      <trkpt lat="44.56432" lon="2.26952">
        <ele>345.7</ele>
        <time>2022-06-19T12:15:22.000Z</time>
      </trkpt>
      <trkpt lat="44.56407" lon="2.2687">
        <ele>352.6</ele>
        <time>2022-06-19T12:16:12.000Z</time>
      </trkpt>
      <trkpt lat="44.5637" lon="2.26752">
        <ele>353.9</ele>
        <time>2022-06-19T12:17:25.000Z</time>
      </trkpt>
      <trkpt lat="44.56342" lon="2.26682">
        <ele>353.6</ele>
        <time>2022-06-19T12:18:07.000Z</time>
      </trkpt>
      <trkpt lat="44.56324" lon="2.2662">
        <ele>353.1</ele>
        <time>2022-06-19T12:18:42.000Z</time>
      </trkpt>
      <trkpt lat="44.56312" lon="2.26552">
        <ele>352.5</ele>
        <time>2022-06-19T12:19:19.000Z</time>
      </trkpt>
      <trkpt lat="44.56311" lon="2.26504">
        <ele>351.4</ele>
        <time>2022-06-19T12:20:10.000Z</time>
      </trkpt>
      <trkpt lat="44.56312" lon="2.26487">
        <ele>351.6</ele>
        <time>2022-06-19T12:44:34.000Z</time>
      </trkpt>
      <trkpt lat="44.56318" lon="2.26437">
        <ele>352.2</ele>
      </trkpt>
      <trkpt lat="44.56318" lon="2.26434">
        <ele>352.2</ele>
        <time>2022-06-19T12:48:08.000Z</time>
      </trkpt>
      <trkpt lat="44.56328" lon="2.26409">
        <ele>350.7</ele>
        <time>2022-06-19T12:48:49.000Z</time>
      </trkpt>
      <trkpt lat="44.5633" lon="2.26334">
        <ele>347.1</ele>
        <time>2022-06-19T12:49:22.000Z</time>
      </trkpt>
      <trkpt lat="44.5635" lon="2.2628">
        <ele>342.1</ele>
        <time>2022-06-19T12:49:57.000Z</time>
      </trkpt>
      <trkpt lat="44.56367" lon="2.26238">
        <ele>338.6</ele>
        <time>2022-06-19T12:50:29.000Z</time>
      </trkpt>
      <trkpt lat="44.56388" lon="2.26181">
        <ele>333.6</ele>
        <time>2022-06-19T12:51:03.000Z</time>
      </trkpt>
      <trkpt lat="44.56409" lon="2.26112">
        <ele>326.3</ele>
        <time>2022-06-19T12:51:46.000Z</time>
      </trkpt>
      <trkpt lat="44.56424" lon="2.26067">
        <ele>321.9</ele>
        <time>2022-06-19T12:52:15.000Z</time>
      </trkpt>
      <trkpt lat="44.56438" lon="2.25988">
        <ele>316.5</ele>
        <time>2022-06-19T12:52:57.000Z</time>
      </trkpt>
      <trkpt lat="44.56459" lon="2.2592">
        <ele>312.6</ele>
        <time>2022-06-19T12:53:40.000Z</time>
      </trkpt>
      <trkpt lat="44.5646" lon="2.25868">
        <ele>308.9</ele>
        <time>2022-06-19T12:54:08.000Z</time>
      </trkpt>
      <trkpt lat="44.5647" lon="2.25796">
        <ele>303</ele>
        <time>2022-06-19T12:54:50.000Z</time>
      </trkpt>
      <trkpt lat="44.56475" lon="2.25766">
        <ele>298.9</ele>
        <time>2022-06-19T12:55:09.000Z</time>
      </trkpt>
      <trkpt lat="44.56471" lon="2.25747">
        <ele>296.8</ele>
        <time>2022-06-19T12:55:58.000Z</time>
      </trkpt>
      <trkpt lat="44.56467" lon="2.25699">
        <ele>290.1</ele>
        <time>2022-06-19T12:56:29.000Z</time>
      </trkpt>
      <trkpt lat="44.56463" lon="2.25658">
        <ele>285.5</ele>
        <time>2022-06-19T12:56:56.000Z</time>
      </trkpt>
      <trkpt lat="44.56498" lon="2.25625">
        <ele>281.2</ele>
        <time>2022-06-19T12:57:33.000Z</time>
      </trkpt>
      <trkpt lat="44.56504" lon="2.2557">
        <ele>275.8</ele>
        <time>2022-06-19T12:58:07.000Z</time>
      </trkpt>
      <trkpt lat="44.56503" lon="2.25524">
        <ele>269.9</ele>
        <time>2022-06-19T12:58:35.000Z</time>
      </trkpt>
      <trkpt lat="44.56469" lon="2.25475">
        <ele>265.1</ele>
        <time>2022-06-19T12:59:18.000Z</time>
      </trkpt>
      <trkpt lat="44.56459" lon="2.25389">
        <ele>257.9</ele>
        <time>2022-06-19T13:00:05.000Z</time>
      </trkpt>
      <trkpt lat="44.56446" lon="2.25306">
        <ele>250.9</ele>
        <time>2022-06-19T13:00:53.000Z</time>
      </trkpt>
      <trkpt lat="44.56439" lon="2.25258">
        <ele>243.9</ele>
        <time>2022-06-19T13:01:21.000Z</time>
      </trkpt>
      <trkpt lat="44.56442" lon="2.25199">
        <ele>236.8</ele>
        <time>2022-06-19T13:01:56.000Z</time>
      </trkpt>
      <trkpt lat="44.56477" lon="2.25181">
        <ele>233.9</ele>
        <time>2022-06-19T13:02:32.000Z</time>
      </trkpt>
      <trkpt lat="44.56498" lon="2.25151">
        <ele>223.5</ele>
        <time>2022-06-19T13:03:14.000Z</time>
      </trkpt>
      <trkpt lat="44.56466" lon="2.25123">
        <ele>219.7</ele>
        <time>2022-06-19T13:03:44.000Z</time>
      </trkpt>
      <trkpt lat="44.56433" lon="2.25078">
        <ele>212.2</ele>
        <time>2022-06-19T13:04:23.000Z</time>
      </trkpt>
      <trkpt lat="44.56388" lon="2.25074">
        <ele>207.6</ele>
        <time>2022-06-19T13:05:09.000Z</time>
      </trkpt>
      <trkpt lat="44.56356" lon="2.25027">
        <ele>204.8</ele>
        <time>2022-06-19T13:05:54.000Z</time>
      </trkpt>
      <trkpt lat="44.56365" lon="2.24971">
        <ele>205</ele>
        <time>2022-06-19T13:06:29.000Z</time>
      </trkpt>
      <trkpt lat="44.56381" lon="2.2492">
        <ele>205</ele>
        <time>2022-06-19T13:06:59.000Z</time>
      </trkpt>
      <trkpt lat="44.56379" lon="2.24877">
        <ele>205.6</ele>
        <time>2022-06-19T13:07:22.000Z</time>
      </trkpt>
      <trkpt lat="44.56377" lon="2.24819">
        <ele>205.9</ele>
        <time>2022-06-19T13:07:54.000Z</time>
      </trkpt>
      <trkpt lat="44.56423" lon="2.24817">
        <ele>209.8</ele>
        <time>2022-06-19T13:08:43.000Z</time>
      </trkpt>
      <trkpt lat="44.56428" lon="2.24824">
        <ele>209.9</ele>
        <time>2022-06-19T13:10:21.000Z</time>
      </trkpt>
      <trkpt lat="44.56431" lon="2.24826">
        <ele>210.1</ele>
        <time>2022-06-19T13:16:25.000Z</time>
      </trkpt>
      <trkpt lat="44.56432" lon="2.24821">
        <ele>210.5</ele>
        <time>2022-06-19T13:20:34.000Z</time>
      </trkpt>
      <trkpt lat="44.56427" lon="2.24824">
        <ele>209.8</ele>
        <time>2022-06-19T13:24:00.000Z</time>
      </trkpt>
      <trkpt lat="44.56429" lon="2.24805">
        <ele>211.5</ele>
        <time>2022-06-19T13:26:32.000Z</time>
      </trkpt>
      <trkpt lat="44.56434" lon="2.24775">
        <ele>215.4</ele>
        <time>2022-06-19T13:27:04.000Z</time>
      </trkpt>
      <trkpt lat="44.56415" lon="2.2472">
        <ele>219.8</ele>
        <time>2022-06-19T13:27:48.000Z</time>
      </trkpt>
      <trkpt lat="44.5641" lon="2.24706">
        <ele>220.7</ele>
        <time>2022-06-19T13:28:24.000Z</time>
      </trkpt>
      <trkpt lat="44.56423" lon="2.24645">
        <ele>227.6</ele>
        <time>2022-06-19T13:29:03.000Z</time>
      </trkpt>
      <trkpt lat="44.56454" lon="2.24613">
        <ele>232.2</ele>
        <time>2022-06-19T13:29:34.000Z</time>
      </trkpt>
      <trkpt lat="44.56489" lon="2.24617">
        <ele>240.7</ele>
        <time>2022-06-19T13:30:14.000Z</time>
      </trkpt>
      <trkpt lat="44.56508" lon="2.2464">
        <ele>246.8</ele>
        <time>2022-06-19T13:30:42.000Z</time>
      </trkpt>
      <trkpt lat="44.56536" lon="2.24674">
        <ele>252.4</ele>
        <time>2022-06-19T13:31:21.000Z</time>
      </trkpt>
      <trkpt lat="44.56588" lon="2.24642">
        <ele>260.9</ele>
        <time>2022-06-19T13:32:09.000Z</time>
      </trkpt>
      <trkpt lat="44.56618" lon="2.24574">
        <ele>267.8</ele>
        <time>2022-06-19T13:32:56.000Z</time>
      </trkpt>
      <trkpt lat="44.56646" lon="2.2456">
        <ele>272.8</ele>
        <time>2022-06-19T13:33:23.000Z</time>
      </trkpt>
      <trkpt lat="44.56682" lon="2.24552">
        <ele>279.6</ele>
        <time>2022-06-19T13:33:52.000Z</time>
      </trkpt>
      <trkpt lat="44.56708" lon="2.24585">
        <ele>288.6</ele>
        <time>2022-06-19T13:34:21.000Z</time>
      </trkpt>
      <trkpt lat="44.56734" lon="2.2462">
        <ele>290.8</ele>
        <time>2022-06-19T13:34:55.000Z</time>
      </trkpt>
      <trkpt lat="44.56806" lon="2.24647">
        <ele>296.4</ele>
        <time>2022-06-19T13:35:47.000Z</time>
      </trkpt>
      <trkpt lat="44.56817" lon="2.24654">
        <ele>296.5</ele>
        <time>2022-06-19T13:37:28.000Z</time>
      </trkpt>
      <trkpt lat="44.5682" lon="2.24661">
        <ele>296</ele>
        <time>2022-06-19T13:40:02.000Z</time>
      </trkpt>
      <trkpt lat="44.56868" lon="2.24669">
        <ele>295.3</ele>
        <time>2022-06-19T13:40:43.000Z</time>
      </trkpt>
      <trkpt lat="44.5692" lon="2.24688">
        <ele>289.7</ele>
        <time>2022-06-19T13:41:21.000Z</time>
      </trkpt>
      <trkpt lat="44.56967" lon="2.24697">
        <ele>285.5</ele>
        <time>2022-06-19T13:41:58.000Z</time>
      </trkpt>
      <trkpt lat="44.57007" lon="2.2469">
        <ele>283.6</ele>
        <time>2022-06-19T13:42:28.000Z</time>
      </trkpt>
      <trkpt lat="44.57055" lon="2.24682">
        <ele>282.4</ele>
        <time>2022-06-19T13:43:08.000Z</time>
      </trkpt>
      <trkpt lat="44.57115" lon="2.24662">
        <ele>281.4</ele>
        <time>2022-06-19T13:43:54.000Z</time>
      </trkpt>
      <trkpt lat="44.57186" lon="2.24609">
        <ele>283.8</ele>
        <time>2022-06-19T13:44:53.000Z</time>
      </trkpt>
      <trkpt lat="44.57219" lon="2.24589">
        <ele>286.6</ele>
        <time>2022-06-19T13:45:21.000Z</time>
      </trkpt>
      <trkpt lat="44.57278" lon="2.24576">
        <ele>290.9</ele>
        <time>2022-06-19T13:46:06.000Z</time>
      </trkpt>
      <trkpt lat="44.57273" lon="2.24555">
        <ele>295.7</ele>
        <time>2022-06-19T13:46:29.000Z</time>
      </trkpt>
      <trkpt lat="44.57316" lon="2.24518">
        <ele>300.6</ele>
        <time>2022-06-19T13:47:10.000Z</time>
      </trkpt>
      <trkpt lat="44.57336" lon="2.24464">
        <ele>306</ele>
        <time>2022-06-19T13:47:49.000Z</time>
      </trkpt>
      <trkpt lat="44.57327" lon="2.24388">
        <ele>311.9</ele>
        <time>2022-06-19T13:48:34.000Z</time>
      </trkpt>
      <trkpt lat="44.57341" lon="2.24345">
        <ele>316.2</ele>
        <time>2022-06-19T13:49:02.000Z</time>
      </trkpt>
      <trkpt lat="44.57363" lon="2.24307">
        <ele>320.1</ele>
        <time>2022-06-19T13:49:44.000Z</time>
      </trkpt>
      <trkpt lat="44.57385" lon="2.24254">
        <ele>326.6</ele>
        <time>2022-06-19T13:50:18.000Z</time>
      </trkpt>
      <trkpt lat="44.5741" lon="2.24215">
        <ele>330.5</ele>
        <time>2022-06-19T13:50:49.000Z</time>
      </trkpt>
      <trkpt lat="44.57442" lon="2.24171">
        <ele>333.6</ele>
        <time>2022-06-19T13:51:27.000Z</time>
      </trkpt>
      <trkpt lat="44.5748" lon="2.24122">
        <ele>337</ele>
        <time>2022-06-19T13:52:05.000Z</time>
      </trkpt>
      <trkpt lat="44.57505" lon="2.24055">
        <ele>344.8</ele>
        <time>2022-06-19T13:52:47.000Z</time>
      </trkpt>
      <trkpt lat="44.57492" lon="2.24032">
        <ele>346.2</ele>
        <time>2022-06-19T13:53:30.000Z</time>
      </trkpt>
      <trkpt lat="44.57488" lon="2.24038">
        <ele>345.8</ele>
        <time>2022-06-19T13:54:51.000Z</time>
      </trkpt>
      <trkpt lat="44.5749" lon="2.24039">
        <ele>345.8</ele>
        <time>2022-06-19T13:56:25.000Z</time>
      </trkpt>
      <trkpt lat="44.57491" lon="2.24039">
        <ele>345.8</ele>
        <time>2022-06-19T13:59:36.000Z</time>
      </trkpt>
      <trkpt lat="44.57518" lon="2.24012">
        <ele>347.7</ele>
        <time>2022-06-19T14:00:10.000Z</time>
      </trkpt>
      <trkpt lat="44.57566" lon="2.23982">
        <ele>351.2</ele>
        <time>2022-06-19T14:00:51.000Z</time>
      </trkpt>
      <trkpt lat="44.57599" lon="2.23979">
        <ele>353.3</ele>
        <time>2022-06-19T14:01:23.000Z</time>
      </trkpt>
      <trkpt lat="44.57636" lon="2.23944">
        <ele>353</ele>
        <time>2022-06-19T14:02:19.000Z</time>
      </trkpt>
      <trkpt lat="44.57637" lon="2.23938">
        <ele>352.5</ele>
        <time>2022-06-19T14:04:17.000Z</time>
      </trkpt>
      <trkpt lat="44.57637" lon="2.23936">
        <ele>352.3</ele>
        <time>2022-06-19T14:07:35.000Z</time>
      </trkpt>
      <trkpt lat="44.57636" lon="2.23938">
        <ele>352.5</ele>
        <time>2022-06-19T14:09:21.000Z</time>
      </trkpt>
      <trkpt lat="44.57636" lon="2.23937">
        <ele>352.4</ele>
        <time>2022-06-19T14:12:06.000Z</time>
      </trkpt>
      <trkpt lat="44.57634" lon="2.2394">
        <ele>352.6</ele>
        <time>2022-06-19T14:15:57.000Z</time>
      </trkpt>
      <trkpt lat="44.57636" lon="2.23937">
        <ele>352.4</ele>
        <time>2022-06-19T14:21:08.000Z</time>
      </trkpt>
      <trkpt lat="44.57634" lon="2.23936">
        <ele>352.3</ele>
        <time>2022-06-19T14:27:01.000Z</time>
      </trkpt>
      <trkpt lat="44.57636" lon="2.23939">
        <ele>352.6</ele>
        <time>2022-06-19T14:29:03.000Z</time>
      </trkpt>
      <trkpt lat="44.57635" lon="2.23943">
        <ele>352.8</ele>
        <time>2022-06-19T14:31:01.000Z</time>
      </trkpt>
      <trkpt lat="44.57639" lon="2.23939">
        <ele>352.6</ele>
        <time>2022-06-19T14:32:40.000Z</time>
      </trkpt>
      <trkpt lat="44.57654" lon="2.2391">
        <ele>350.4</ele>
        <time>2022-06-19T14:33:15.000Z</time>
      </trkpt>
      <trkpt lat="44.57665" lon="2.23927">
        <ele>349.4</ele>
        <time>2022-06-19T14:34:23.000Z</time>
      </trkpt>
      <trkpt lat="44.57654" lon="2.23934">
        <ele>350.3</ele>
        <time>2022-06-19T14:35:07.000Z</time>
      </trkpt>
      <trkpt lat="44.57666" lon="2.23922">
        <ele>349.6</ele>
        <time>2022-06-19T14:35:58.000Z</time>
      </trkpt>
      <trkpt lat="44.57677" lon="2.23867">
        <ele>350.9</ele>
        <time>2022-06-19T14:36:42.000Z</time>
      </trkpt>
      <trkpt lat="44.57681" lon="2.23829">
        <ele>353.3</ele>
        <time>2022-06-19T14:37:08.000Z</time>
      </trkpt>
      <trkpt lat="44.57684" lon="2.23762">
        <ele>353.7</ele>
        <time>2022-06-19T14:37:47.000Z</time>
      </trkpt>
      <trkpt lat="44.57693" lon="2.23704">
        <ele>349.6</ele>
        <time>2022-06-19T14:38:24.000Z</time>
      </trkpt>
      <trkpt lat="44.57712" lon="2.23634">
        <ele>348.7</ele>
        <time>2022-06-19T14:39:05.000Z</time>
      </trkpt>
      <trkpt lat="44.57726" lon="2.23591">
        <ele>352.8</ele>
        <time>2022-06-19T14:39:30.000Z</time>
      </trkpt>
      <trkpt lat="44.57738" lon="2.23564">
        <ele>352.3</ele>
        <time>2022-06-19T14:39:48.000Z</time>
      </trkpt>
      <trkpt lat="44.57758" lon="2.23508">
        <ele>351.4</ele>
        <time>2022-06-19T14:40:24.000Z</time>
      </trkpt>
      <trkpt lat="44.57789" lon="2.23445">
        <ele>347.1</ele>
        <time>2022-06-19T14:41:05.000Z</time>
      </trkpt>
      <trkpt lat="44.57803" lon="2.23388">
        <ele>344</ele>
        <time>2022-06-19T14:41:38.000Z</time>
      </trkpt>
      <trkpt lat="44.57824" lon="2.23327">
        <ele>340.4</ele>
        <time>2022-06-19T14:42:17.000Z</time>
      </trkpt>
      <trkpt lat="44.57846" lon="2.23291">
        <ele>336.3</ele>
        <time>2022-06-19T14:42:43.000Z</time>
      </trkpt>
      <trkpt lat="44.57872" lon="2.23244">
        <ele>331.5</ele>
        <time>2022-06-19T14:43:20.000Z</time>
      </trkpt>
      <trkpt lat="44.5791" lon="2.23182">
        <ele>325.8</ele>
        <time>2022-06-19T14:44:03.000Z</time>
      </trkpt>
      <trkpt lat="44.57955" lon="2.23114">
        <ele>329.6</ele>
        <time>2022-06-19T14:44:55.000Z</time>
      </trkpt>
      <trkpt lat="44.57992" lon="2.23039">
        <ele>330.4</ele>
        <time>2022-06-19T14:45:45.000Z</time>
      </trkpt>
      <trkpt lat="44.5802" lon="2.22948">
        <ele>328.7</ele>
        <time>2022-06-19T14:46:38.000Z</time>
      </trkpt>
      <trkpt lat="44.58039" lon="2.22897">
        <ele>326.2</ele>
        <time>2022-06-19T14:47:12.000Z</time>
      </trkpt>
      <trkpt lat="44.58069" lon="2.22852">
        <ele>323.5</ele>
        <time>2022-06-19T14:47:47.000Z</time>
      </trkpt>
      <trkpt lat="44.58123" lon="2.22845">
        <ele>318.5</ele>
        <time>2022-06-19T14:48:36.000Z</time>
      </trkpt>
      <trkpt lat="44.58149" lon="2.22845">
        <ele>313.7</ele>
        <time>2022-06-19T14:49:09.000Z</time>
      </trkpt>
      <trkpt lat="44.58149" lon="2.22846">
        <ele>313.4</ele>
        <time>2022-06-19T14:51:13.000Z</time>
      </trkpt>
      <trkpt lat="44.58158" lon="2.22831">
        <ele>313.2</ele>
        <time>2022-06-19T14:52:57.000Z</time>
      </trkpt>
      <trkpt lat="44.5819" lon="2.22777">
        <ele>308</ele>
        <time>2022-06-19T14:53:37.000Z</time>
      </trkpt>
      <trkpt lat="44.58209" lon="2.22709">
        <ele>303.2</ele>
        <time>2022-06-19T14:54:17.000Z</time>
      </trkpt>
      <trkpt lat="44.58219" lon="2.22662">
        <ele>297.4</ele>
        <time>2022-06-19T14:54:48.000Z</time>
      </trkpt>
      <trkpt lat="44.58241" lon="2.22629">
        <ele>292.5</ele>
        <time>2022-06-19T14:55:12.000Z</time>
      </trkpt>
      <trkpt lat="44.58265" lon="2.22578">
        <ele>284.2</ele>
        <time>2022-06-19T14:55:48.000Z</time>
      </trkpt>
      <trkpt lat="44.58269" lon="2.22532">
        <ele>275.6</ele>
        <time>2022-06-19T14:56:16.000Z</time>
      </trkpt>
      <trkpt lat="44.58268" lon="2.225">
        <ele>271.1</ele>
        <time>2022-06-19T14:56:35.000Z</time>
      </trkpt>
      <trkpt lat="44.58283" lon="2.2248">
        <ele>262.6</ele>
        <time>2022-06-19T14:57:05.000Z</time>
      </trkpt>
      <trkpt lat="44.58274" lon="2.22454">
        <ele>260.9</ele>
        <time>2022-06-19T14:57:26.000Z</time>
      </trkpt>
      <trkpt lat="44.58274" lon="2.22437">
        <ele>256.3</ele>
        <time>2022-06-19T14:57:56.000Z</time>
      </trkpt>
      <trkpt lat="44.58301" lon="2.22456">
        <ele>250.1</ele>
        <time>2022-06-19T14:58:20.000Z</time>
      </trkpt>
      <trkpt lat="44.58325" lon="2.22481">
        <ele>244.5</ele>
        <time>2022-06-19T14:58:43.000Z</time>
      </trkpt>
      <trkpt lat="44.58343" lon="2.22501">
        <ele>241.7</ele>
        <time>2022-06-19T14:59:02.000Z</time>
      </trkpt>
      <trkpt lat="44.58362" lon="2.2253">
        <ele>234.1</ele>
        <time>2022-06-19T14:59:24.000Z</time>
      </trkpt>
      <trkpt lat="44.58377" lon="2.22549">
        <ele>229.2</ele>
        <time>2022-06-19T14:59:42.000Z</time>
      </trkpt>
      <trkpt lat="44.58383" lon="2.22565">
        <ele>225.3</ele>
        <time>2022-06-19T14:59:57.000Z</time>
      </trkpt>
      <trkpt lat="44.58388" lon="2.22597">
        <ele>222.6</ele>
        <time>2022-06-19T15:00:16.000Z</time>
      </trkpt>
      <trkpt lat="44.58407" lon="2.22616">
        <ele>218.6</ele>
        <time>2022-06-19T15:00:36.000Z</time>
      </trkpt>
      <trkpt lat="44.58426" lon="2.22655">
        <ele>214.4</ele>
        <time>2022-06-19T15:01:02.000Z</time>
      </trkpt>
      <trkpt lat="44.58428" lon="2.22682">
        <ele>212.3</ele>
        <time>2022-06-19T15:01:17.000Z</time>
      </trkpt>
      <trkpt lat="44.58436" lon="2.22704">
        <ele>208.6</ele>
        <time>2022-06-19T15:01:45.000Z</time>
      </trkpt>
      <trkpt lat="44.5846" lon="2.22742">
        <ele>202.5</ele>
        <time>2022-06-19T15:02:27.000Z</time>
      </trkpt>
      <trkpt lat="44.58473" lon="2.22774">
        <ele>197.5</ele>
        <time>2022-06-19T15:02:52.000Z</time>
      </trkpt>
      <trkpt lat="44.5848" lon="2.22826">
        <ele>191.4</ele>
        <time>2022-06-19T15:03:20.000Z</time>
      </trkpt>
      <trkpt lat="44.58473" lon="2.22862">
        <ele>188.9</ele>
        <time>2022-06-19T15:04:29.000Z</time>
      </trkpt>
      <trkpt lat="44.58469" lon="2.22864">
        <ele>190.9</ele>
        <time>2022-06-19T15:06:01.000Z</time>
      </trkpt>
      <trkpt lat="44.58482" lon="2.22888">
        <ele>186.7</ele>
        <time>2022-06-19T15:08:19.000Z</time>
      </trkpt>
      <trkpt lat="44.58531" lon="2.22871">
        <ele>185.6</ele>
        <time>2022-06-19T15:09:19.000Z</time>
      </trkpt>
      <trkpt lat="44.58575" lon="2.22896">
        <ele>180.5</ele>
        <time>2022-06-19T15:09:58.000Z</time>
      </trkpt>
      <trkpt lat="44.58599" lon="2.22909">
        <ele>180.5</ele>
        <time>2022-06-19T15:10:28.000Z</time>
      </trkpt>
      <trkpt lat="44.58641" lon="2.22933">
        <ele>183.4</ele>
        <time>2022-06-19T15:11:00.000Z</time>
      </trkpt>
      <trkpt lat="44.58706" lon="2.22983">
        <ele>185.6</ele>
        <time>2022-06-19T15:11:53.000Z</time>
      </trkpt>
      <trkpt lat="44.58732" lon="2.23047">
        <ele>184.4</ele>
        <time>2022-06-19T15:12:28.000Z</time>
      </trkpt>
      <trkpt lat="44.58756" lon="2.23095">
        <ele>184.3</ele>
        <time>2022-06-19T15:13:07.000Z</time>
      </trkpt>
      <trkpt lat="44.58758" lon="2.23096">
        <ele>184.3</ele>
        <time>2022-06-19T15:14:03.000Z</time>
      </trkpt>
      <trkpt lat="44.5879" lon="2.23103">
        <ele>184</ele>
        <time>2022-06-19T15:14:59.000Z</time>
      </trkpt>
      <trkpt lat="44.58817" lon="2.23122">
        <ele>184.4</ele>
        <time>2022-06-19T15:15:25.000Z</time>
      </trkpt>
      <trkpt lat="44.58843" lon="2.2315">
        <ele>185.4</ele>
        <time>2022-06-19T15:15:50.000Z</time>
      </trkpt>
      <trkpt lat="44.58885" lon="2.23173">
        <ele>188</ele>
        <time>2022-06-19T15:16:24.000Z</time>
      </trkpt>
      <trkpt lat="44.58903" lon="2.23193">
        <ele>189.5</ele>
        <time>2022-06-19T15:16:50.000Z</time>
      </trkpt>
      <trkpt lat="44.58905" lon="2.23196">
        <ele>189.6</ele>
        <time>2022-06-19T15:17:43.000Z</time>
      </trkpt>
      <trkpt lat="44.5891" lon="2.23188">
        <ele>189.7</ele>
        <time>2022-06-19T15:18:07.000Z</time>
      </trkpt>
    </trkseg>
  </trk>
</gpx>